Main page
METAR-TAF:

METAR-TAF

Airports :

Amman, Jordan

Amman Civil Airport

latitude: 31-59N, longitude: 035-59E, elevation: 767 m

Current weather observation

The report was made 9 minutes ago, at 19:00 UTC
Calm wind
Temperature 19°C
Humidity 73%
Pressure 1017 hPa
Visibility: 5000 m
haze

METAR: OJAM 211900Z 00000KT 5000 HZ NSC 19/14 Q1017 NOSIG

Time: 22:09 (19:09 UTC)

Forecast

The report was made 3 hours and 9 minutes ago, at 16:00 UTC
Forecast valid from 21 at 18 UTC to 22 at 24 UTC
Wind 8 kt from the West/Northwest
Visibility: 5000 m
Few clouds at a height of 3000 ft
haze
Temporary
from 22 at 02 UTC to 22 at 06 UTC
Wind 2 kt from variable directions
Visibility: 2500 m
Scattered clouds at a height of 3000 ft
mist

TAF: OJAM 211600Z 2118/2224 30008KT 5000 HZ FEW030 TEMPO 2202/2206 VRB02KT 2500 BR SCT030

Weather observations and forecasts of more than 4000 airports (METAR and TAF reports).

The available stations are represented by yellow and red dots on the map.

Hover mouse over dot to see the name of the station.

Then click to see weather observations and forecasts.

To change the map : click on the green buttons with a black cross to zoom in, on the green button with a dash to zoom out, or on the green arrows for adjacent maps.


METAR-TAF: